Aurillac Airport

LFLW · Auvergne-Rhône-Alpes, Frankreich

3. Oktober 2022

Uhrzeit Code Wetter Temp. Sichtweite Wolkendecke Wind METAR/SPECI
04:00
L
9 °C 250 m - 080° 080° 3 kt METAR LFLW 030200Z AUTO 08003KT 0300 0250 R15/0275N FG VV/// 09/09 Q1026
03:30
L
8 °C 200 m - 110° 110° 3 kt METAR LFLW 030130Z AUTO 11003KT 0300 0200 R15/0450N FG VV/// 08/08 Q1026
03:00
L
9 °C 500 m - Var 000° 0 kt METAR LFLW 030100Z AUTO 00000KT 0600 0500 R15/0500D FG VV/// 09/09 Q1026
02:30
L
10 °C 350 m - Var 000° 0 kt METAR LFLW 030030Z AUTO 00000KT 0350 R15/0600U FG VV/// 10/10 Q1026
02:00
L
10 °C 400 m - 110° 110° 2 kt METAR LFLW 030000Z AUTO 11002KT 0450 0400 R15/0600U FG VV/// 10/10 Q1026
01:30
L
10 °C 350 m - 110° 110° 2 kt METAR LFLW 022330Z AUTO 11002KT 0350 R15/0450U FG VV/// 10/10 Q1026
01:00
L
10 °C 600 m - 100° 100° 3 kt METAR LFLW 022300Z AUTO 10003KT 0650 0600 R15/0900U FG VV/// 10/10 Q1026
00:30
L
11 °C 600 m - Var Var 3 kt METAR LFLW 022230Z AUTO VRB03KT 1800 0600 R15/1500D BCFG NSC 11/11 Q1026
00:00
M
11 °C 5 km 3.900 ft Var Var 2 kt METAR LFLW 022200Z AUTO VRB02KT 5000 BR FEW021 BKN039 11/11 Q1026

2. Oktober 2022

Uhrzeit Code Wetter Temp. Sichtweite Wolkendecke Wind METAR/SPECI
23:30
M
12 °C 7 km 2.100 ft 060° 060° 4 kt METAR LFLW 022130Z AUTO 06004KT 030V090 7000 SCT012 BKN021 OVC027 12/12 Q1027
23:00
I
11 °C 2 km 4.400 ft Var Var 2 kt METAR LFLW 022100Z AUTO VRB02KT 2000 BR SCT021 BKN044 11/11 Q1027
22:30
L
11 °C 1 km 4.000 ft Var Var 3 kt METAR LFLW 022030Z AUTO VRB03KT 3200 1000 R15/P2000 BR FEW018 OVC040 11/11 Q1027
22:00
L
12 °C 800 m - Var 000° 0 kt METAR LFLW 022000Z AUTO 00000KT 5000 0800 R15/1800D BCFG FEW022 SCT039 12/11 Q1027
21:30
L
12 °C 600 m - Var 000° 0 kt METAR LFLW 021930Z AUTO 00000KT 3100 0600 R15/1400D BCFG FEW024 12/11 Q1027
21:00
V
12 °C 10 km+ - Var 000° 0 kt METAR LFLW 021900Z AUTO 00000KT 9999 FEW021 12/11 Q1026
20:30
V
14 °C 10 km+ - Var Var 2 kt METAR LFLW 021830Z AUTO VRB02KT CAVOK 14/12 Q1026
20:00
V
15 °C 10 km+ - 280° 280° 2 kt METAR LFLW 021800Z AUTO 28002KT CAVOK 15/12 Q1026
19:30
V
16 °C 10 km+ - Var Var 2 kt METAR LFLW 021730Z AUTO VRB02KT CAVOK 16/13 Q1026
19:00
V
16 °C 10 km+ - Var Var 3 kt METAR LFLW 021700Z AUTO VRB03KT 9999 FEW018 16/13 Q1026 NOSIG
18:30
V
18 °C 10 km+ - 290° 290° 4 kt METAR LFLW 021630Z AUTO 29004KT 250V350 9999 SCT019 SCT028 18/13 Q1026 NOSIG
18:00
V
18 °C 10 km+ 3.900 ft 290° 290° 6 kt METAR LFLW 021600Z AUTO 29006KT 250V330 9999 FEW021 BKN039 18/13 Q1026 NOSIG
17:30
V
18 °C 10 km+ 3.800 ft 300° 300° 4 kt METAR LFLW 021530Z AUTO 30004KT 260V350 9999 FEW020 OVC038 18/13 Q1026 NOSIG
17:00
V
17 °C 10 km+ 3.300 ft 310° 310° 3 kt METAR LFLW 021500Z AUTO 31003KT 250V360 9999 FEW024 OVC033 17/13 Q1027 NOSIG
16:30
V
17 °C 10 km+ 3.000 ft 320° 320° 4 kt METAR LFLW 021430Z AUTO 32004KT 260V010 9999 FEW021 OVC030 17/13 Q1027 NOSIG
16:00
M
17 °C 10 km+ 2.800 ft 300° 300° 4 kt METAR LFLW 021400Z AUTO 30004KT 240V360 9999 FEW017 BKN028 OVC033 17/13 Q1027 NOSIG
15:30
M
17 °C 10 km+ 2.500 ft 300° 300° 5 kt METAR LFLW 021330Z AUTO 30005KT 260V330 9999 SCT017 BKN025 OVC030 17/13 Q1027 NOSIG
15:00
M
17 °C 10 km+ 1.700 ft 290° 290° 4 kt METAR LFLW 021300Z AUTO 29004KT 240V350 9999 BKN017 BKN023 OVC033 17/13 Q1027 NOSIG
14:30
M
17 °C 10 km+ 2.200 ft 280° 280° 5 kt METAR LFLW 021230Z AUTO 28005KT 240V310 9999 OVC022 17/13 Q1028 NOSIG
14:00
M
17 °C 10 km+ 2.200 ft 280° 280° 5 kt METAR LFLW 021200Z AUTO 28005KT 230V330 9999 BKN022 OVC027 17/13 Q1028 NOSIG
13:30
M
16 °C 10 km+ 1.900 ft 290° 290° 5 kt METAR LFLW 021130Z AUTO 29005KT 250V350 9999 BKN019 OVC024 16/13 Q1028 NOSIG
13:00
M
16 °C 10 km+ 1.600 ft 310° 310° 4 kt METAR LFLW 021100Z AUTO 31004KT 270V020 9999 BKN016 OVC022 16/13 Q1028 NOSIG
12:30
M
16 °C 10 km+ 1.800 ft 290° 290° 6 kt METAR LFLW 021030Z AUTO 29006KT 250V330 9999 FEW013 BKN018 OVC024 16/12 Q1028 NOSIG
12:00
M
15 °C 10 km+ 2.200 ft 280° 280° 4 kt METAR LFLW 021000Z AUTO 28004KT 230V320 9999 SCT014 OVC022 15/13 Q1028 TEMPO BKN008
11:30
M
15 °C 10 km+ 1.300 ft 240° 240° 5 kt METAR LFLW 020930Z AUTO 24005KT 200V280 9999 BKN013 OVC024 15/13 Q1028 BECMG OVC025
11:00
M
15 °C 10 km+ 2.100 ft Var Var 3 kt METAR LFLW 020900Z AUTO VRB03KT 9999 SCT011 SCT016 BKN021 15/13 Q1028 TEMPO BKN008
10:30
M
15 °C 10 km+ 1.700 ft Var Var 3 kt METAR LFLW 020830Z AUTO VRB03KT 9999 FEW010 OVC017 15/13 Q1028 TEMPO BKN008
10:00
M
14 °C 10 km+ 2.100 ft Var 000° 0 kt METAR LFLW 020800Z AUTO 00000KT 9999 BKN021 OVC027 14/13 Q1028 TEMPO 3000 BR OVC008
09:30
M
14 °C 10 km+ 2.300 ft Var 000° 0 kt METAR LFLW 020730Z AUTO 00000KT 9999 OVC023 14/13 Q1028 TEMPO 3000 BR OVC008
09:00
M
13 °C 10 km+ 2.600 ft Var Var 2 kt METAR LFLW 020700Z AUTO VRB02KT 9999 OVC026 13/13 Q1027 TEMPO 3000 BR OVC003
08:30
M
13 °C 10 km+ 2.500 ft Var Var 1 kt METAR LFLW 020630Z AUTO VRB01KT 9999 OVC025 13/12 Q1027 TEMPO 3000 BR OVC003
08:00
M
13 °C 10 km+ 2.300 ft 270° 270° 4 kt METAR LFLW 020600Z AUTO 27004KT 240V310 9999 BKN023 BKN052 13/12 Q1027
07:30
M
13 °C 10 km+ 2.300 ft 290° 290° 5 kt METAR LFLW 020530Z AUTO 29005KT 250V320 9999 FEW008 SCT013 OVC023 13/12 Q1027
07:00
M
13 °C 10 km+ 1.700 ft 280° 280° 4 kt METAR LFLW 020500Z AUTO 28004KT 250V310 9999 FEW005 SCT011 OVC017 13/13 Q1027
06:30
L
14 °C 3,7 km 300 ft 270° 270° 3 kt METAR LFLW 020430Z AUTO 27003KT 240V300 3700 BR BKN003 OVC008 14/14 Q1027
06:00
I
14 °C 3,9 km 600 ft 270° 270° 3 kt METAR LFLW 020400Z AUTO 27003KT 240V300 9999 3900 BKN006 OVC011 14/14 Q1027
05:30
I
14 °C 10 km+ 500 ft 260° 260° 3 kt METAR LFLW 020330Z AUTO 26003KT 230V290 9999 OVC005 14/14 Q1027
05:00
I
14 °C 10 km+ 600 ft Var Var 3 kt METAR LFLW 020300Z AUTO VRB03KT 9999 OVC006 14/14 Q1027
04:30
I
14 °C 10 km+ 500 ft 290° 290° 2 kt METAR LFLW 020230Z AUTO 29002KT 9999 OVC005 14/14 Q1027
04:00
L
14 °C 3,1 km 400 ft Var Var 3 kt METAR LFLW 020200Z AUTO VRB03KT 3100 BR OVC004 14/14 Q1027
03:30
I
14 °C 10 km+ 500 ft 230° 230° 3 kt METAR LFLW 020130Z AUTO 23003KT 180V270 9999 OVC005 14/14 Q1027
03:00
L
14 °C 10 km+ 400 ft 250° 250° 2 kt METAR LFLW 020100Z AUTO 25002KT 9999 BKN004 OVC008 14/14 Q1027
02:30
L
15 °C 10 km+ 400 ft 240° 240° 3 kt METAR LFLW 020030Z AUTO 24003KT 210V270 9999 OVC004 15/14 Q1027
02:00
I
15 °C 10 km+ 500 ft Var Var 3 kt METAR LFLW 020000Z AUTO VRB03KT 9999 OVC005 15/14 Q1027
01:30
I
15 °C 10 km+ 700 ft 270° 270° 3 kt METAR LFLW 012330Z AUTO 27003KT 240V300 9999 BKN007 OVC037 15/14 Q1027
01:00
I
15 °C 5 km 800 ft 240° 240° 5 kt METAR LFLW 012300Z AUTO 24005KT 210V270 5000 -RADZ BR OVC008 15/15 Q1027
00:30
I
15 °C 8 km 600 ft 250° 250° 5 kt METAR LFLW 012230Z AUTO 25005KT 8000 OVC006 15/15 Q1027
00:00
I
15 °C 10 km+ 700 ft 240° 240° 4 kt METAR LFLW 012200Z AUTO 24004KT 9999 OVC007 15/15 Q1027

1. Oktober 2022

Uhrzeit Code Wetter Temp. Sichtweite Wolkendecke Wind METAR/SPECI
23:30
I
15 °C 10 km+ 600 ft 240° 240° 5 kt METAR LFLW 012130Z AUTO 24005KT 200V260 9999 OVC006 15/15 Q1027
23:00
L
15 °C 6 km 400 ft 250° 250° 6 kt METAR LFLW 012100Z AUTO 25006KT 6000 OVC004 15/15 Q1027
22:30
I
15 °C 10 km+ 600 ft 250° 250° 6 kt METAR LFLW 012030Z AUTO 25006KT 220V280 9999 OVC006 15/15 Q1027
22:00
I
15 °C 7 km 600 ft 240° 240° 5 kt METAR LFLW 012000Z AUTO 24005KT 200V270 7000 -RA OVC006 15/15 Q1026
21:30
I
15 °C 4,2 km 600 ft 250° 250° 5 kt METAR LFLW 011930Z AUTO 25005KT 220V280 4200 DZ BR OVC006 15/15 Q1026
21:00
L
15 °C 3,9 km 300 ft 230° 230° 4 kt METAR LFLW 011900Z AUTO 23004KT 3900 -DZ BR OVC003 15/15 Q1026
20:30
I
15 °C 5 km 500 ft 250° 250° 5 kt METAR LFLW 011830Z AUTO 25005KT 210V280 5000 BR OVC005 15/15 Q1026
20:00
I
15 °C 4,8 km 500 ft 250° 250° 5 kt METAR LFLW 011800Z AUTO 25005KT 210V290 4800 -DZ BR OVC005 15/15 Q1025
19:30
I
15 °C 3,4 km 500 ft 250° 250° 6 kt METAR LFLW 011730Z AUTO 25006KT 3400 -RADZ BR OVC005 15/15 Q1025
19:00
L
15 °C 3,8 km 400 ft 240° 240° 5 kt METAR LFLW 011700Z AUTO 24005KT 210V270 3800 BR OVC004 15/14 Q1024 TEMPO 0600 FG VV///
18:30
I
15 °C 4,8 km 500 ft 240° 240° 4 kt METAR LFLW 011630Z AUTO 24004KT 200V270 4800 -DZ BR OVC005 15/14 Q1024 TEMPO 0600 FG VV///
18:00
L
14 °C 2,5 km 300 ft Var Var 3 kt METAR LFLW 011600Z AUTO VRB03KT 2500 DZ BR OVC003 14/14 Q1024 TEMPO 0600 FG VV///
17:30
L
14 °C 2,7 km 400 ft 230° 230° 4 kt METAR LFLW 011530Z AUTO 23004KT 200V260 2700 +DZ BR OVC004 14/14 Q1024 TEMPO 0600 FG VV///
17:00
L
14 °C 3,8 km 400 ft 230° 230° 4 kt METAR LFLW 011500Z AUTO 23004KT 180V260 3800 -DZ BR OVC004 14/13 Q1024 TEMPO 0600 FG VV///
16:30
L
13 °C 1,7 km 400 ft 230° 230° 3 kt METAR LFLW 011430Z AUTO 23003KT 190V260 1700 -RA BR OVC004 13/13 Q1024 TEMPO 0600 FG VV///
16:00
L
13 °C 2,1 km 400 ft Var Var 3 kt METAR LFLW 011400Z AUTO VRB03KT 2100 -DZ BR OVC004 13/13 Q1024 TEMPO 0600 FG VV///
15:30
I
13 °C 3,8 km 500 ft 230° 230° 4 kt METAR LFLW 011330Z AUTO 23004KT 180V270 3800 -RADZ BR OVC005 13/12 Q1023 TEMPO 0600 FG VV///
15:00
I
12 °C 3,3 km 500 ft 220° 220° 4 kt METAR LFLW 011300Z AUTO 22004KT 190V250 3300 -RADZ BR OVC005 12/12 Q1023 TEMPO 0600 FG VV///
14:30
L
12 °C 4,4 km 400 ft 250° 250° 4 kt METAR LFLW 011230Z AUTO 25004KT 220V300 4400 -RA BR OVC004 12/12 Q1023 TEMPO 0600 FG VV///
14:00
L
12 °C 2,1 km 400 ft Var 000° 0 kt METAR LFLW 011200Z AUTO 00000KT 2100 -RA BR OVC004 12/12 Q1023 TEMPO 0600 FG VV///
13:30
I
12 °C 10 km+ 600 ft 200° 200° 4 kt METAR LFLW 011130Z AUTO 20004KT 150V230 9999 OVC006 12/11 Q1023 TEMPO 0600 FG VV///
13:00
I
11 °C 5 km 500 ft 230° 230° 4 kt METAR LFLW 011100Z AUTO 23004KT 180V280 5000 -RA BR OVC005 11/11 Q1023 TEMPO 0600 FG VV///
12:30
I
11 °C 2,7 km 500 ft 220° 220° 5 kt METAR LFLW 011030Z AUTO 22005KT 170V250 2700 RA BR OVC005 11/10 Q1023 TEMPO 0600 FG VV///
12:00
I
11 °C 2,9 km 500 ft 220° 220° 5 kt METAR LFLW 011000Z AUTO 22005KT 170V250 2900 -RADZ BR OVC005 11/10 Q1023 TEMPO 0600 FG VV///
11:30
I
11 °C 3,7 km 500 ft 210° 210° 5 kt METAR LFLW 010930Z AUTO 21005KT 140V250 3700 -DZ BR OVC005 11/10 Q1022 TEMPO 0600 FG VV///
11:00
I
10 °C 3,6 km 600 ft 190° 190° 4 kt METAR LFLW 010900Z AUTO 19004KT 150V280 3600 -RA BR OVC006 10/10 Q1022 TEMPO 1500 DZ OVC003
10:30
I
10 °C 5 km 500 ft 190° 190° 3 kt METAR LFLW 010830Z AUTO 19003KT 130V250 5000 -RA BR OVC005 10/10 Q1022 TEMPO 1500 DZ
10:00
I
9 °C 3 km 500 ft Var Var 2 kt METAR LFLW 010800Z AUTO VRB02KT 3000 -DZ BR OVC005 09/09 Q1022 BECMG 9999 -RA
09:30
I
8 °C 2,6 km 600 ft 100° 100° 3 kt METAR LFLW 010730Z AUTO 10003KT 060V140 2600 -RA BR OVC006 08/08 Q1022 TEMPO OVC003 BECMG 9999 -RA
09:00
I
8 °C 3,9 km 600 ft 070° 070° 5 kt METAR LFLW 010700Z AUTO 07005KT 3900 DZ BR OVC006 08/08 Q1021 TEMPO RA OVC003
08:30
I
8 °C 8 km 900 ft 090° 090° 4 kt METAR LFLW 010630Z AUTO 09004KT 8000 DZ BKN009 OVC014 08/07 Q1021 TEMPO 4000 RA BR OVC003
08:00
L
7 °C 350 m 3.100 ft 080° 080° 7 kt METAR LFLW 010600Z AUTO 08007KT 9999 0350 R15/P2000 BCFG FEW013 BKN031 BKN037 07/07 Q1021 TEMPO 4000 RA BR OVC003
07:30
M
7 °C 10 km+ 1.900 ft 070° 070° 5 kt METAR LFLW 010530Z AUTO 07005KT 9999 BKN019 BKN030 OVC043 07/07 Q1021 TEMPO 4000 RA BR OVC003
07:00
M
7 °C 10 km+ 2.300 ft Var Var 3 kt METAR LFLW 010500Z AUTO VRB03KT 9999 SCT008 OVC023 07/06 Q1021
06:30
I
7 °C 10 km+ 900 ft Var Var 2 kt METAR LFLW 010430Z AUTO VRB02KT 9999 OVC009 07/06 Q1020
06:00
M
6 °C 10 km+ 1.000 ft Var Var 3 kt METAR LFLW 010400Z AUTO VRB03KT 9999 -RA BKN010 BKN016 OVC022 06/06 Q1020
05:30
M
6 °C 8 km 1.200 ft Var Var 2 kt METAR LFLW 010330Z AUTO VRB02KT 8000 -RA BKN012/// BKN022/// OVC031/// ///TCU 06/06 Q1020
05:00
V
6 °C 10 km+ 3.400 ft Var Var 3 kt METAR LFLW 010300Z AUTO VRB03KT 9999 -RA FEW017 BKN034 BKN042 06/05 Q1020
04:30
V
5 °C 10 km+ 3.700 ft 100° 100° 3 kt METAR LFLW 010230Z AUTO 10003KT 9999 -RA OVC037 05/05 Q1020
04:00
V
5 °C 10 km+ 4.200 ft 090° 090° 3 kt METAR LFLW 010200Z AUTO 09003KT 9999 BKN042 BKN084 OVC150 05/05 Q1020
03:30
V
4 °C 10 km+ 4.300 ft 100° 100° 3 kt METAR LFLW 010130Z AUTO 10003KT 9999 FEW027 BKN043 04/04 Q1019
03:00
V
4 °C 10 km+ - 100° 100° 3 kt METAR LFLW 010100Z AUTO 10003KT CAVOK 04/04 Q1019
02:30
V
5 °C 10 km+ - 110° 110° 3 kt METAR LFLW 010030Z AUTO 11003KT CAVOK 05/04 Q1019
02:00
V
4 °C 10 km+ - 100° 100° 3 kt METAR LFLW 010000Z AUTO 10003KT CAVOK 04/04 Q1019
01:30
V
4 °C 10 km+ - 100° 100° 2 kt METAR LFLW 302330Z AUTO 10002KT CAVOK 04/04 Q1019
01:00
V
4 °C 10 km+ - 100° 100° 3 kt METAR LFLW 302300Z AUTO 10003KT CAVOK 04/04 Q1019
00:30
V
5 °C 10 km+ - 110° 110° 3 kt METAR LFLW 302230Z AUTO 11003KT 9999 FEW040 05/04 Q1019
00:00
V
5 °C 10 km+ - 100° 100° 3 kt METAR LFLW 302200Z AUTO 10003KT 9999 SCT040 05/05 Q1019

30. September 2022

Uhrzeit Code Wetter Temp. Sichtweite Wolkendecke Wind METAR/SPECI
23:30
V
6 °C 10 km+ - 080° 080° 2 kt METAR LFLW 302130Z AUTO 08002KT CAVOK 06/04 Q1018
23:00
V
6 °C 10 km+ - Var Var 1 kt METAR LFLW 302100Z AUTO VRB01KT CAVOK 06/04 Q1018
22:30
V
7 °C 10 km+ - Var 000° 0 kt METAR LFLW 302030Z AUTO 00000KT CAVOK 07/05 Q1018
22:00
V
8 °C 10 km+ - Var Var 2 kt METAR LFLW 302000Z AUTO VRB02KT 9999 SCT040 08/05 Q1018
21:30
V
8 °C 10 km+ - 260° 260° 1 kt METAR LFLW 301930Z AUTO 26001KT 9999 FEW038 08/05 Q1018
21:00
V
9 °C 10 km+ - Var Var 3 kt METAR LFLW 301900Z AUTO VRB03KT CAVOK 09/05 Q1017
20:30
V
10 °C 10 km+ - 260° 260° 3 kt METAR LFLW 301830Z AUTO 26003KT CAVOK 10/05 Q1017
20:00
V
11 °C 10 km+ 5.800 ft 270° 270° 3 kt METAR LFLW 301800Z AUTO 27003KT 9999 FEW048 BKN058 11/06 Q1016
19:30
V
12 °C 10 km+ - 290° 290° 4 kt METAR LFLW 301730Z AUTO 29004KT 250V320 9999 FEW045 12/05 Q1016
19:00
V
14 °C 10 km+ 3.700 ft 300° 300° 9 kt METAR LFLW 301700Z AUTO 30009KT 260V330 9999 BKN037 OVC046 14/05 Q1016 NOSIG
Ältere Daten

Wir und Dritte verfolgen dein Internetverhalten auf unserer Website mit Cookies. Wenn du fortfährst, gehen wir davon aus, dass du mit unserer Cookie-Richtlinie einverstanden bist. Mehr erfahren